METAR Data
IDs: Format: Raw Decoded Include TAF

Data at: 0210 UTC 29 Nov 2020

METAR for:KCNC (Chariton Muni, IA, US)
Text:KCNC 290155Z AUTO 21009KT 10SM CLR 07/01 A3003 RMK AO2
Temperature: 7.0°C ( 45°F)
Dewpoint: 1.0°C ( 34°F) [RH = 66%]
Pressure (altimeter):30.03 inches Hg (1017.0 mb)
Winds:from the SSW (210 degrees) at 10 MPH (9 knots; 4.6 m/s)
Visibility:10 or more sm (16+ km)
Ceiling:at least 12,000 feet AGL
Clouds:sky clear below 12,000 feet AGL
QC Flag:automated observation with no human augmentation